createdAt,value
2019-06-07T00:00:40.773Z,0.00
2019-06-07T00:01:40.631Z,0.00
2019-06-07T00:02:40.881Z,0.00
2019-06-07T00:03:40.965Z,0.00
2019-06-07T00:04:41.079Z,0.00
2019-06-07T00:05:41.249Z,0.00
2019-06-07T00:06:41.396Z,0.00
2019-06-07T00:07:41.545Z,0.00
2019-06-07T00:08:41.694Z,0.00
2019-06-07T00:09:41.841Z,0.00
2019-06-07T00:10:41.990Z,0.00
2019-06-07T00:11:42.141Z,0.00
2019-06-07T00:12:42.290Z,0.00
2019-06-07T00:13:42.440Z,0.00
2019-06-07T00:14:42.586Z,0.00
2019-06-07T00:15:42.737Z,0.00
2019-06-07T00:16:42.884Z,0.00
2019-06-07T00:17:43.038Z,0.00
2019-06-07T00:18:43.184Z,0.00
2019-06-07T00:19:43.340Z,0.00
2019-06-07T00:20:43.485Z,0.00
2019-06-07T00:22:15.980Z,0.00
2019-06-07T00:22:43.782Z,0.00
2019-06-07T00:23:43.946Z,0.00
2019-06-07T00:24:44.075Z,0.00
2019-06-07T00:25:44.257Z,0.00
2019-06-07T00:26:57.717Z,0.00
2019-06-07T00:27:44.556Z,0.00
2019-06-07T00:28:44.706Z,0.00
2019-06-07T00:29:44.851Z,0.00
2019-06-07T00:30:51.650Z,0.00
2019-06-07T00:31:45.153Z,0.00
2019-06-07T00:32:45.303Z,0.00
2019-06-07T00:33:45.450Z,0.00
2019-06-07T00:34:45.600Z,0.00
2019-06-07T00:35:45.752Z,0.00
2019-06-07T00:36:45.902Z,0.00
2019-06-07T00:37:46.050Z,0.00
2019-06-07T00:38:46.199Z,0.00
2019-06-07T00:40:07.520Z,0.00
2019-06-07T00:40:46.494Z,0.00
2019-06-07T00:41:46.644Z,0.00
2019-06-07T00:42:46.793Z,0.00
2019-06-07T00:43:46.944Z,0.00
2019-06-07T00:44:47.092Z,0.00
2019-06-07T00:45:47.245Z,0.00
2019-06-07T00:46:47.396Z,0.00
2019-06-07T00:47:47.540Z,0.00
2019-06-07T00:48:47.690Z,0.00
2019-06-07T00:49:47.838Z,0.00
2019-06-07T00:50:47.989Z,0.00
2019-06-07T00:51:51.157Z,0.00
2019-06-07T00:53:27.360Z,0.00
2019-06-07T00:53:48.434Z,0.00
2019-06-07T00:54:48.599Z,0.00
2019-06-07T00:55:48.731Z,0.00
2019-06-07T00:56:48.878Z,0.00
2019-06-07T00:57:49.027Z,0.00
2019-06-07T00:59:09.693Z,0.00
2019-06-07T00:59:49.325Z,0.00
2019-06-07T01:00:49.473Z,0.00
2019-06-07T01:01:49.622Z,0.00
2019-06-07T01:02:49.777Z,0.00
2019-06-07T01:03:49.927Z,0.00
2019-06-07T01:04:50.074Z,0.00
2019-06-07T01:05:50.221Z,0.00
2019-06-07T01:06:50.370Z,0.00
2019-06-07T01:07:50.582Z,0.00
2019-06-07T01:08:50.667Z,0.00
2019-06-07T01:09:50.819Z,0.00
2019-06-07T01:10:54.011Z,0.00
2019-06-07T01:11:51.116Z,0.00
2019-06-07T01:12:51.268Z,0.00
2019-06-07T01:13:51.428Z,0.00
2019-06-07T01:14:51.579Z,0.00
2019-06-07T01:15:51.711Z,0.00
2019-06-07T01:17:01.303Z,0.00
2019-06-07T01:18:32.902Z,0.00
2019-06-07T01:18:52.154Z,0.00
2019-06-07T01:19:52.305Z,0.00
2019-06-07T01:20:52.495Z,0.00
2019-06-07T01:21:52.602Z,0.00
2019-06-07T01:22:52.750Z,0.00
2019-06-07T01:24:10.700Z,0.00
2019-06-07T01:24:53.050Z,0.00
2019-06-07T01:25:53.200Z,0.00
2019-06-07T01:26:53.349Z,0.00
2019-06-07T01:27:53.498Z,0.00
2019-06-07T01:28:53.645Z,0.00
2019-06-07T01:29:53.798Z,0.00
2019-06-07T01:30:53.944Z,0.00
2019-06-07T01:31:54.092Z,0.00
2019-06-07T01:32:54.241Z,0.00
2019-06-07T01:33:54.394Z,0.00
2019-06-07T01:34:54.541Z,0.00
2019-06-07T01:35:54.691Z,0.00
2019-06-07T01:36:54.842Z,0.00
2019-06-07T01:37:54.991Z,0.00
2019-06-07T01:38:55.139Z,0.00
2019-06-07T01:39:55.327Z,0.00
2019-06-07T01:40:55.436Z,0.00
2019-06-07T01:41:55.586Z,0.00
2019-06-07T01:42:55.736Z,0.00
2019-06-07T01:43:55.885Z,0.00
2019-06-07T01:44:56.098Z,0.00
2019-06-07T01:45:56.184Z,0.00
2019-06-07T01:46:56.331Z,0.00
2019-06-07T01:47:56.512Z,0.00
2019-06-07T01:48:56.629Z,0.00
2019-06-07T01:49:56.775Z,0.00
2019-06-07T01:50:56.930Z,0.00
2019-06-07T01:51:57.077Z,0.00
2019-06-07T01:52:57.225Z,0.00
2019-06-07T01:54:41.541Z,0.00
2019-06-07T01:54:58.978Z,0.00
2019-06-07T01:55:57.672Z,0.00
2019-06-07T01:56:57.820Z,0.00
2019-06-07T01:57:57.969Z,0.00
2019-06-07T01:58:58.119Z,0.00
2019-06-07T01:59:58.269Z,0.00
2019-06-07T02:00:58.418Z,0.00
2019-06-07T02:01:58.566Z,0.00
2019-06-07T02:02:58.735Z,0.00
2019-06-07T02:03:58.859Z,0.00
2019-06-07T02:04:59.005Z,0.00
2019-06-07T02:05:59.157Z,0.00
2019-06-07T02:06:59.306Z,0.00
2019-06-07T02:07:59.455Z,0.00
2019-06-07T02:08:59.603Z,0.00
2019-06-07T02:09:59.751Z,0.00
2019-06-07T02:10:59.901Z,0.00
2019-06-07T02:12:00.049Z,0.00
2019-06-07T02:13:00.196Z,0.00
2019-06-07T02:14:00.345Z,0.00
2019-06-07T02:15:00.497Z,0.00
2019-06-07T02:16:00.645Z,0.00
2019-06-07T02:17:00.791Z,0.00
2019-06-07T02:18:00.943Z,0.00
2019-06-07T02:19:02.324Z,0.00
2019-06-07T02:20:01.266Z,0.00
2019-06-07T02:21:01.435Z,0.00
2019-06-07T02:22:01.533Z,0.00
2019-06-07T02:23:01.678Z,0.00
2019-06-07T02:24:01.826Z,0.00
2019-06-07T02:25:36.844Z,0.00
2019-06-07T02:26:02.125Z,0.00
2019-06-07T02:27:02.278Z,0.00
2019-06-07T02:28:26.788Z,0.00
2019-06-07T02:29:02.570Z,0.00
2019-06-07T02:30:35.467Z,0.00
2019-06-07T02:31:02.870Z,0.00
2019-06-07T02:32:03.054Z,0.00
2019-06-07T02:33:03.169Z,0.00
2019-06-07T02:34:03.387Z,4.00
2019-06-07T02:35:03.474Z,4.00
2019-06-07T02:36:03.684Z,4.00
2019-06-07T02:37:03.772Z,0.00
2019-06-07T02:38:03.921Z,0.00
2019-06-07T02:39:04.060Z,4.00
2019-06-07T02:40:04.207Z,4.00
2019-06-07T02:41:04.363Z,4.00
2019-06-07T02:42:04.505Z,4.00
2019-06-07T02:43:04.653Z,4.00
2019-06-07T02:44:04.804Z,4.00
2019-06-07T02:45:04.957Z,8.00
2019-06-07T02:46:24.541Z,4.00
2019-06-07T02:47:05.255Z,8.00
2019-06-07T02:48:05.407Z,8.00
2019-06-07T02:49:05.560Z,12.00
2019-06-07T02:50:05.706Z,12.00
2019-06-07T02:51:05.890Z,12.00
2019-06-07T02:52:06.050Z,16.00
2019-06-07T02:53:06.150Z,16.00
2019-06-07T02:54:06.342Z,20.00
2019-06-07T02:55:06.448Z,20.00
2019-06-07T02:56:42.032Z,24.00
2019-06-07T02:57:06.742Z,28.00
2019-06-07T02:58:06.896Z,32.00
2019-06-07T02:59:07.041Z,36.00
2019-06-07T03:00:40.042Z,40.00
2019-06-07T03:01:09.573Z,44.00
2019-06-07T03:02:07.491Z,48.00
2019-06-07T03:03:07.638Z,56.00
2019-06-07T03:04:07.793Z,64.00
2019-06-07T03:05:07.937Z,72.00
2019-06-07T03:06:08.087Z,80.00
2019-06-07T03:07:08.238Z,84.00
2019-06-07T03:08:08.387Z,92.00
2019-06-07T03:09:08.565Z,96.00
2019-06-07T03:10:08.685Z,104.00
2019-06-07T03:11:08.841Z,112.00
2019-06-07T03:12:09.002Z,124.00
2019-06-07T03:13:09.144Z,132.00
2019-06-07T03:14:09.293Z,144.00
2019-06-07T03:15:09.441Z,156.00
2019-06-07T03:16:09.589Z,164.00
2019-06-07T03:17:09.736Z,180.00
2019-06-07T03:18:09.884Z,192.00
2019-06-07T03:19:10.035Z,208.00
2019-06-07T03:20:10.185Z,224.00
2019-06-07T03:21:10.331Z,228.00
2019-06-07T03:22:10.484Z,240.00
2019-06-07T03:23:10.633Z,252.00
2019-06-07T03:24:10.780Z,268.00
2019-06-07T03:25:10.930Z,280.00
2019-06-07T03:26:11.078Z,296.00
2019-06-07T03:27:34.241Z,308.00
2019-06-07T03:28:11.379Z,320.00
2019-06-07T03:29:11.528Z,328.00
2019-06-07T03:30:35.986Z,344.00
2019-06-07T03:31:11.824Z,356.00
2019-06-07T03:32:12.045Z,372.00
2019-06-07T03:33:12.132Z,384.00
2019-06-07T03:34:12.275Z,400.00
2019-06-07T03:35:12.424Z,416.00
2019-06-07T03:36:23.282Z,428.00
2019-06-07T03:37:12.722Z,452.00
2019-06-07T03:38:12.874Z,476.00
2019-06-07T03:39:13.022Z,484.00
2019-06-07T03:40:13.171Z,496.00
2019-06-07T03:41:13.317Z,508.00
2019-06-07T03:42:13.467Z,512.00
2019-06-07T03:43:13.614Z,532.00
2019-06-07T03:44:13.766Z,548.00
2019-06-07T03:45:13.914Z,564.00
2019-06-07T03:46:14.079Z,564.00
2019-06-07T03:47:14.268Z,572.00
2019-06-07T03:48:14.387Z,584.00
2019-06-07T03:49:14.576Z,612.00
2019-06-07T03:50:14.687Z,656.00
2019-06-07T03:51:24.817Z,676.00
2019-06-07T03:52:14.984Z,688.00
2019-06-07T03:53:15.131Z,700.00
2019-06-07T03:54:15.282Z,720.00
2019-06-07T03:55:15.446Z,748.00
2019-06-07T03:56:15.878Z,792.00
2019-06-07T03:57:15.732Z,836.00
2019-06-07T03:58:34.725Z,876.00
2019-06-07T03:59:16.033Z,884.00
2019-06-07T04:00:16.182Z,876.00
2019-06-07T04:01:16.337Z,912.00
2019-06-07T04:02:16.483Z,936.00
2019-06-07T04:03:32.750Z,936.00
2019-06-07T04:04:16.781Z,948.00
2019-06-07T04:05:16.932Z,968.00
2019-06-07T04:06:17.080Z,1016.00
2019-06-07T04:07:17.229Z,1044.00
2019-06-07T04:08:17.380Z,1056.00
2019-06-07T04:09:17.529Z,1108.00
2019-06-07T04:10:17.763Z,1164.00
2019-06-07T04:11:17.830Z,1192.00
2019-06-07T04:12:17.979Z,1200.00
2019-06-07T04:13:18.135Z,1192.00
2019-06-07T04:14:18.277Z,1196.00
2019-06-07T04:15:18.426Z,1264.00
2019-06-07T04:16:18.575Z,1364.00
2019-06-07T04:17:18.724Z,1400.00
2019-06-07T04:18:18.874Z,1388.00
2019-06-07T04:19:19.024Z,1368.00
2019-06-07T04:20:19.188Z,1348.00
2019-06-07T04:21:19.319Z,1352.00
2019-06-07T04:22:19.461Z,1376.00
2019-06-07T04:23:29.920Z,1396.00
2019-06-07T04:24:19.972Z,1464.00
2019-06-07T04:25:19.895Z,1504.00
2019-06-07T04:26:20.040Z,1516.00
2019-06-07T04:27:20.188Z,1528.00
2019-06-07T04:28:20.341Z,1580.00
2019-06-07T04:29:56.672Z,1652.00
2019-06-07T04:30:20.659Z,1708.00
2019-06-07T04:31:22.159Z,1772.00
2019-06-07T04:32:20.959Z,1824.00
2019-06-07T04:33:21.107Z,1816.00
2019-06-07T04:34:21.256Z,1832.00
2019-06-07T04:35:21.407Z,1876.00
2019-06-07T04:36:39.506Z,1940.00
2019-06-07T04:37:21.706Z,1940.00
2019-06-07T04:38:21.856Z,1972.00
2019-06-07T04:39:22.004Z,2040.00
2019-06-07T04:40:22.154Z,2112.00
2019-06-07T04:41:22.309Z,2132.00
2019-06-07T04:42:22.457Z,2148.00
2019-06-07T04:43:22.604Z,2176.00
2019-06-07T04:44:22.755Z,2232.00
2019-06-07T04:45:33.967Z,2300.00
2019-06-07T04:46:23.054Z,2396.00
2019-06-07T04:47:23.197Z,2460.00
2019-06-07T04:48:23.354Z,2492.00
2019-06-07T04:49:23.507Z,2508.00
2019-06-07T04:50:23.654Z,2548.00
2019-06-07T04:51:23.848Z,2636.00
2019-06-07T04:52:23.950Z,2644.00
2019-06-07T04:53:24.099Z,2572.00
2019-06-07T04:54:24.274Z,2620.00
2019-06-07T04:55:24.397Z,2668.00
2019-06-07T04:56:24.556Z,2632.00
2019-06-07T04:57:24.691Z,2564.00
2019-06-07T04:58:24.842Z,2564.00
2019-06-07T05:00:04.219Z,2592.00
2019-06-07T05:00:48.762Z,2728.00
2019-06-07T05:01:27.839Z,2884.00
2019-06-07T05:02:25.443Z,3060.00
2019-06-07T05:03:25.589Z,3248.00
2019-06-07T05:04:25.738Z,3340.00
2019-06-07T05:05:25.887Z,3592.00
2019-06-07T05:06:26.034Z,3732.00
2019-06-07T05:07:26.654Z,3704.00
2019-06-07T05:08:28.541Z,3680.00
2019-06-07T05:09:26.498Z,3820.00
2019-06-07T05:10:26.644Z,3940.00
2019-06-07T05:11:26.860Z,3964.00
2019-06-07T05:12:26.942Z,4072.00
2019-06-07T05:13:27.090Z,4228.00
2019-06-07T05:14:28.363Z,4428.00
2019-06-07T05:15:27.388Z,4480.00
2019-06-07T05:16:27.536Z,4412.00
2019-06-07T05:17:28.875Z,4448.00
2019-06-07T05:18:27.837Z,4704.00
2019-06-07T05:19:27.986Z,5072.00
2019-06-07T05:20:28.134Z,5444.00
2019-06-07T05:21:49.392Z,5720.00
2019-06-07T05:22:30.797Z,5716.00
2019-06-07T05:24:03.545Z,5544.00
2019-06-07T05:24:30.270Z,5336.00
2019-06-07T05:25:31.643Z,5124.00
2019-06-07T05:26:30.498Z,4876.00
2019-06-07T05:27:32.584Z,4616.00
2019-06-07T05:28:30.024Z,4448.00
2019-06-07T05:29:30.802Z,4472.00
2019-06-07T05:31:03.012Z,4264.00
2019-06-07T05:31:31.093Z,4388.00
2019-06-07T05:32:32.882Z,4484.00
2019-06-07T05:33:31.183Z,4972.00
2019-06-07T05:34:32.290Z,5140.00
2019-06-07T05:35:30.645Z,5104.00
2019-06-07T05:36:31.479Z,5280.00
2019-06-07T05:37:33.520Z,5780.00
2019-06-07T05:38:31.081Z,6120.00
2019-06-07T05:39:32.122Z,6312.00
2019-06-07T05:40:32.935Z,6516.00
2019-06-07T05:41:32.312Z,6288.00
2019-06-07T05:42:32.134Z,5904.00
2019-06-07T05:43:35.089Z,5652.00
2019-06-07T05:44:31.738Z,5332.00
2019-06-07T05:45:32.355Z,5188.00
2019-06-07T05:46:33.888Z,5184.00
2019-06-07T05:47:32.226Z,5204.00
2019-06-07T05:48:32.373Z,5332.00
2019-06-07T05:49:33.056Z,5436.00
2019-06-07T05:50:42.613Z,5552.00
2019-06-07T05:51:34.616Z,5676.00
2019-06-07T05:52:34.032Z,5908.00
2019-06-07T05:53:34.611Z,6192.00
2019-06-07T05:54:35.113Z,6372.00
2019-06-07T05:55:35.160Z,6492.00
2019-06-07T05:56:35.712Z,6420.00
2019-06-07T05:57:37.310Z,6364.00
2019-06-07T05:58:35.048Z,7004.00
2019-06-07T05:59:37.949Z,7248.00
2019-06-07T06:00:36.100Z,7104.00
2019-06-07T06:01:46.008Z,7320.00
2019-06-07T06:02:53.020Z,7092.00
2019-06-07T06:03:35.102Z,6740.00
2019-06-07T06:04:36.012Z,6432.00
2019-06-07T06:05:41.638Z,6472.00
2019-06-07T06:06:36.347Z,6556.00
2019-06-07T06:07:38.682Z,5992.00
2019-06-07T06:08:36.650Z,5676.00
2019-06-07T06:09:36.468Z,5816.00
2019-06-07T06:10:37.693Z,5968.00
2019-06-07T06:11:49.332Z,6580.00
2019-06-07T06:12:40.887Z,7680.00
2019-06-07T06:13:38.283Z,7716.00
2019-06-07T06:14:39.594Z,7556.00
2019-06-07T06:15:45.314Z,7360.00
2019-06-07T06:16:37.171Z,7056.00
2019-06-07T06:17:40.346Z,7748.00
2019-06-07T06:18:38.038Z,8324.00
2019-06-07T06:19:39.746Z,9372.00
2019-06-07T06:21:02.226Z,8992.00
2019-06-07T06:21:38.531Z,8896.00
2019-06-07T06:22:41.444Z,9264.00
2019-06-07T06:23:39.503Z,9868.00
2019-06-07T06:24:39.450Z,9836.00
2019-06-07T06:25:41.590Z,10968.00
2019-06-07T06:26:45.458Z,11428.00
2019-06-07T06:28:38.401Z,12856.00
2019-06-07T06:29:40.242Z,12864.00
2019-06-07T06:30:40.940Z,12784.00
2019-06-07T06:31:48.274Z,12344.00
2019-06-07T06:32:43.005Z,11676.00
2019-06-07T06:33:39.623Z,11752.00
2019-06-07T06:34:43.245Z,10892.00
2019-06-07T06:35:39.883Z,10856.00
2019-06-07T06:36:40.544Z,11788.00
2019-06-07T06:37:42.536Z,10844.00
2019-06-07T06:38:41.279Z,10032.00
2019-06-07T06:39:42.036Z,9636.00
2019-06-07T06:40:43.319Z,10940.00
2019-06-07T06:41:50.381Z,11144.00
2019-06-07T06:42:42.096Z,11428.00
2019-06-07T06:43:42.266Z,11880.00
2019-06-07T06:44:42.542Z,10584.00
2019-06-07T06:45:42.425Z,9988.00
2019-06-07T06:46:46.675Z,10936.00
2019-06-07T06:47:43.150Z,11600.00
2019-06-07T06:48:47.403Z,10812.00
2019-06-07T06:49:42.149Z,9600.00
2019-06-07T06:50:43.618Z,10312.00
2019-06-07T06:51:43.090Z,10400.00
2019-06-07T06:52:43.984Z,9924.00
2019-06-07T06:53:43.744Z,10708.00
2019-06-07T06:54:46.696Z,11528.00
2019-06-07T06:55:43.960Z,11344.00
2019-06-07T06:56:45.159Z,12456.00
2019-06-07T06:57:43.516Z,12040.00
2019-06-07T06:59:21.586Z,12408.00
2019-06-07T06:59:45.085Z,12056.00
2019-06-07T07:00:52.263Z,13744.00
2019-06-07T07:01:45.035Z,14056.00
2019-06-07T07:03:33.048Z,11976.00
2019-06-07T07:04:01.160Z,12032.00
2019-06-07T07:04:45.546Z,12460.00
2019-06-07T07:05:46.288Z,12100.00
2019-06-07T07:06:45.428Z,11016.00
2019-06-07T07:07:45.317Z,10716.00
2019-06-07T07:08:47.861Z,11072.00
2019-06-07T07:09:51.078Z,11712.00
2019-06-07T07:10:45.994Z,11956.00
2019-06-07T07:12:04.242Z,12684.00
2019-06-07T07:12:45.427Z,12600.00
2019-06-07T07:13:49.250Z,12052.00
2019-06-07T07:14:47.257Z,12484.00
2019-06-07T07:15:49.973Z,12360.00
2019-06-07T07:16:49.604Z,12116.00
2019-06-07T07:17:53.818Z,12404.00
2019-06-07T07:18:47.543Z,12172.00
2019-06-07T07:19:48.428Z,11808.00
2019-06-07T07:20:48.247Z,11692.00
2019-06-07T07:21:51.427Z,11580.00
2019-06-07T07:22:48.571Z,11672.00
2019-06-07T07:24:06.570Z,11564.00
2019-06-07T07:24:47.680Z,11656.00
2019-06-07T07:25:53.645Z,11412.00
2019-06-07T07:26:50.124Z,10856.00
2019-06-07T07:27:52.089Z,11924.00
2019-06-07T07:28:51.862Z,12316.00
2019-06-07T07:29:53.114Z,12816.00
2019-06-07T07:30:49.976Z,12916.00
2019-06-07T07:31:51.741Z,13572.00
2019-06-07T07:32:48.966Z,12964.00
2019-06-07T07:34:51.493Z,11060.00
2019-06-07T07:36:14.065Z,10900.00
2019-06-07T07:36:52.919Z,11320.00
2019-06-07T07:37:54.056Z,11244.00
2019-06-07T07:38:53.235Z,10856.00
2019-06-07T07:39:52.987Z,10784.00
2019-06-07T07:41:01.805Z,10788.00
2019-06-07T07:42:13.745Z,11696.00
2019-06-07T07:42:52.713Z,12372.00
2019-06-07T07:43:59.379Z,12152.00
2019-06-07T07:44:53.425Z,12216.00
2019-06-07T07:45:54.679Z,11740.00
2019-06-07T07:46:53.810Z,11300.00
2019-06-07T07:48:08.248Z,11616.00
2019-06-07T07:48:53.027Z,11320.00
2019-06-07T07:49:53.036Z,10832.00
2019-06-07T07:50:54.425Z,10928.00
2019-06-07T07:51:55.702Z,11864.00
2019-06-07T07:52:59.518Z,12640.00
2019-06-07T07:54:01.559Z,12972.00
2019-06-07T07:54:52.827Z,12552.00
2019-06-07T07:55:54.934Z,12712.00
2019-06-07T07:56:55.606Z,13268.00
2019-06-07T07:58:00.898Z,13296.00
2019-06-07T07:58:56.194Z,13920.00
2019-06-07T08:00:06.151Z,13500.00
2019-06-07T08:01:02.779Z,13464.00
2019-06-07T08:01:55.550Z,12748.00
2019-06-07T08:02:55.255Z,13268.00
2019-06-07T08:03:54.961Z,13352.00
2019-06-07T08:05:16.564Z,14360.00
2019-06-07T08:05:54.953Z,14144.00
2019-06-07T08:06:54.748Z,14444.00
2019-06-07T08:07:56.723Z,15328.00
2019-06-07T08:08:55.903Z,13492.00
2019-06-07T08:09:57.718Z,13436.00
2019-06-07T08:10:56.442Z,13996.00
2019-06-07T08:11:59.994Z,14572.00
2019-06-07T08:13:16.276Z,14892.00
2019-06-07T08:13:57.256Z,14912.00
2019-06-07T08:14:58.479Z,14356.00
2019-06-07T08:15:59.207Z,14336.00
2019-06-07T08:16:57.557Z,13404.00
2019-06-07T08:17:59.639Z,13296.00
2019-06-07T08:19:02.263Z,13644.00
2019-06-07T08:19:57.560Z,13244.00
2019-06-07T08:21:20.267Z,13508.00
2019-06-07T08:21:55.839Z,12652.00
2019-06-07T08:22:59.689Z,13468.00
2019-06-07T08:24:00.377Z,13896.00
2019-06-07T08:24:59.866Z,12880.00
2019-06-07T08:26:00.138Z,12516.00
2019-06-07T08:27:17.651Z,11664.00
2019-06-07T08:27:58.575Z,12264.00
2019-06-07T08:28:59.740Z,13272.00
2019-06-07T08:30:15.757Z,12888.00
2019-06-07T08:31:04.356Z,12152.00
2019-06-07T08:31:58.681Z,10544.00
2019-06-07T08:33:23.528Z,10608.00
2019-06-07T08:34:00.444Z,10728.00
2019-06-07T08:35:05.629Z,11488.00
2019-06-07T08:36:11.266Z,11900.00
2019-06-07T08:37:01.252Z,12452.00
2019-06-07T08:39:07.039Z,14208.00
2019-06-07T08:39:59.669Z,16160.00
2019-06-07T08:41:05.922Z,15648.00
2019-06-07T08:42:14.047Z,15264.00
2019-06-07T08:43:15.380Z,14560.00
2019-06-07T08:44:02.641Z,12580.00
2019-06-07T08:45:03.642Z,13096.00
2019-06-07T08:46:04.412Z,13156.00
2019-06-07T08:47:16.717Z,12888.00
2019-06-07T08:48:09.185Z,13240.00
2019-06-07T08:49:03.937Z,12040.00
2019-06-07T08:50:06.275Z,12264.00
2019-06-07T08:51:06.579Z,14016.00
2019-06-07T08:52:09.894Z,13896.00
2019-06-07T08:53:11.051Z,14816.00
2019-06-07T08:54:21.080Z,15072.00
2019-06-07T08:55:04.500Z,13788.00
2019-06-07T08:56:08.932Z,14368.00
2019-06-07T08:57:20.039Z,15552.00
2019-06-07T08:58:05.772Z,14848.00
2019-06-07T08:59:10.849Z,13940.00
2019-06-07T09:00:07.115Z,12580.00
2019-06-07T09:01:07.763Z,12168.00
2019-06-07T09:02:09.646Z,10180.00
2019-06-07T09:03:05.023Z,10044.00
2019-06-07T09:04:07.764Z,8960.00
2019-06-07T09:05:11.191Z,9024.00
2019-06-07T09:06:16.108Z,9140.00
2019-06-07T09:07:14.708Z,10876.00
2019-06-07T09:08:23.656Z,10712.00
2019-06-07T09:09:05.182Z,10472.00
2019-06-07T09:10:12.715Z,11192.00
2019-06-07T09:11:10.456Z,11428.00
2019-06-07T09:12:08.153Z,11940.00
2019-06-07T09:13:10.155Z,12144.00
2019-06-07T09:14:08.801Z,11556.00
2019-06-07T09:15:18.147Z,10536.00
2019-06-07T09:16:08.567Z,9576.00
2019-06-07T09:17:08.761Z,9424.00
2019-06-07T09:19:10.438Z,9140.00
2019-06-07T09:20:08.468Z,9068.00
2019-06-07T09:21:09.024Z,8976.00
2019-06-07T09:22:10.252Z,8776.00
2019-06-07T09:23:11.424Z,8840.00
2019-06-07T09:24:11.203Z,9000.00
2019-06-07T09:25:12.255Z,8864.00
2019-06-07T09:26:15.907Z,8660.00
2019-06-07T09:27:07.878Z,8204.00
2019-06-07T09:28:14.234Z,8020.00
2019-06-07T09:29:09.466Z,8352.00
2019-06-07T09:30:15.239Z,9148.00
2019-06-07T09:31:09.890Z,11200.00
2019-06-07T09:32:12.104Z,10824.00
2019-06-07T09:33:07.063Z,11444.00
2019-06-07T09:34:11.786Z,12288.00
2019-06-07T09:35:12.450Z,11920.00
2019-06-07T09:36:10.197Z,12600.00
2019-06-07T09:37:54.790Z,13488.00
2019-06-07T09:38:21.805Z,15328.00
2019-06-07T09:39:10.074Z,15616.00
2019-06-07T09:40:21.824Z,15520.00
2019-06-07T09:41:09.377Z,14912.00
2019-06-07T09:42:10.613Z,13832.00
2019-06-07T09:43:55.331Z,13700.00
2019-06-07T09:44:23.205Z,13752.00
2019-06-07T09:45:12.229Z,13004.00
2019-06-07T09:46:12.955Z,12940.00
2019-06-07T09:47:29.890Z,14368.00
2019-06-07T09:48:13.888Z,13400.00
2019-06-07T09:49:18.101Z,15008.00
2019-06-07T09:50:12.206Z,14684.00
2019-06-07T09:51:19.318Z,14252.00
2019-06-07T09:52:11.103Z,14396.00
2019-06-07T09:53:21.030Z,14188.00
2019-06-07T09:54:11.530Z,12888.00
2019-06-07T09:55:23.095Z,13036.00
2019-06-07T09:56:12.206Z,13300.00
2019-06-07T09:57:16.602Z,12640.00
2019-06-07T09:58:48.709Z,12100.00
2019-06-07T09:59:12.846Z,13308.00
2019-06-07T10:00:38.253Z,11196.00
2019-06-07T10:01:13.740Z,10296.00
2019-06-07T10:02:13.727Z,9948.00
2019-06-07T10:03:20.062Z,9424.00
2019-06-07T10:04:28.237Z,10708.00
2019-06-07T10:05:14.078Z,11028.00
2019-06-07T10:06:13.682Z,10284.00
2019-06-07T10:07:28.525Z,11980.00
2019-06-07T10:08:54.711Z,10696.00
2019-06-07T10:11:12.522Z,11320.00
2019-06-07T10:12:12.675Z,11020.00
2019-06-07T10:13:12.835Z,11336.00
2019-06-07T10:14:12.985Z,11200.00
2019-06-07T10:15:13.144Z,11164.00
2019-06-07T10:16:13.300Z,11328.00
2019-06-07T10:17:13.455Z,11712.00
2019-06-07T10:18:13.609Z,8580.00
2019-06-07T10:19:13.770Z,7532.00
2019-06-07T10:20:13.926Z,7088.00
2019-06-07T10:21:15.206Z,6932.00
2019-06-07T10:22:14.233Z,7128.00
2019-06-07T10:23:14.377Z,8684.00
2019-06-07T10:24:14.529Z,7588.00
2019-06-07T10:25:14.686Z,7456.00
2019-06-07T10:26:14.842Z,6900.00
2019-06-07T10:27:14.998Z,6596.00
2019-06-07T10:28:15.153Z,7164.00
2019-06-07T10:29:15.309Z,9316.00
2019-06-07T10:30:15.466Z,9292.00
2019-06-07T10:31:15.619Z,7144.00
2019-06-07T10:32:15.776Z,7840.00
2019-06-07T10:33:15.934Z,7492.00
2019-06-07T10:34:16.087Z,6712.00
2019-06-07T10:35:16.683Z,7880.00
2019-06-07T10:36:16.431Z,8008.00
2019-06-07T10:37:16.557Z,7536.00
2019-06-07T10:38:16.710Z,7700.00
2019-06-07T10:39:16.868Z,7760.00
2019-06-07T10:40:17.021Z,7372.00
2019-06-07T10:41:17.174Z,7088.00
2019-06-07T10:42:17.338Z,6856.00
2019-06-07T10:43:17.491Z,6724.00
2019-06-07T10:44:17.645Z,6712.00
2019-06-07T10:45:17.802Z,6708.00
2019-06-07T10:46:17.954Z,6732.00
2019-06-07T10:47:18.119Z,6808.00
2019-06-07T10:48:18.263Z,7408.00
2019-06-07T10:49:18.412Z,7396.00
2019-06-07T10:50:18.567Z,7168.00
2019-06-07T10:51:18.720Z,7020.00
2019-06-07T10:52:18.876Z,7372.00
2019-06-07T10:53:19.033Z,7480.00
2019-06-07T10:54:27.868Z,7276.00
2019-06-07T10:55:19.341Z,7116.00
2019-06-07T10:56:19.496Z,6936.00
2019-06-07T10:57:19.652Z,6840.00
2019-06-07T10:58:19.806Z,6756.00
2019-06-07T10:59:19.965Z,6660.00
2019-06-07T11:00:20.120Z,6588.00
2019-06-07T11:01:20.274Z,6880.00
2019-06-07T11:02:20.432Z,7296.00
2019-06-07T11:03:20.588Z,7380.00
2019-06-07T11:04:20.748Z,7268.00
2019-06-07T11:05:20.901Z,6980.00
2019-06-07T11:06:21.059Z,6964.00
2019-06-07T11:07:21.210Z,6996.00
2019-06-07T11:08:21.369Z,6904.00
2019-06-07T11:09:21.525Z,6744.00
2019-06-07T11:10:21.688Z,6616.00
2019-06-07T11:11:21.835Z,6564.00
2019-06-07T11:12:22.005Z,6520.00
2019-06-07T11:13:22.149Z,6516.00
2019-06-07T11:14:22.306Z,6516.00
2019-06-07T11:15:22.462Z,6524.00
2019-06-07T11:16:22.618Z,6600.00
2019-06-07T11:17:22.781Z,6636.00
2019-06-07T11:18:22.928Z,6584.00
2019-06-07T11:19:23.082Z,6560.00
2019-06-07T11:20:23.240Z,6576.00
2019-06-07T11:21:23.398Z,6616.00
2019-06-07T11:22:23.552Z,6684.00
2019-06-07T11:23:23.707Z,6784.00
2019-06-07T11:24:24.865Z,6812.00
2019-06-07T11:25:24.021Z,5980.00
2019-06-07T11:26:24.177Z,6904.00
2019-06-07T11:27:24.343Z,6908.00
2019-06-07T11:28:24.473Z,6880.00
2019-06-07T11:29:24.647Z,6812.00
2019-06-07T11:30:24.797Z,6764.00
2019-06-07T11:31:24.953Z,6764.00
2019-06-07T11:32:25.110Z,6748.00
2019-06-07T11:33:25.267Z,6712.00
2019-06-07T11:34:25.423Z,6676.00
2019-06-07T11:35:25.581Z,6688.00
2019-06-07T11:36:25.735Z,6728.00
2019-06-07T11:37:25.929Z,6772.00
2019-06-07T11:38:26.053Z,6832.00
2019-06-07T11:39:26.211Z,6860.00
2019-06-07T11:40:34.000Z,6888.00
2019-06-07T11:41:26.527Z,6856.00
2019-06-07T11:42:26.686Z,6844.00
2019-06-07T11:43:26.840Z,6852.00
2019-06-07T11:44:26.998Z,6884.00
2019-06-07T11:45:27.152Z,6896.00
2019-06-07T11:46:27.316Z,6928.00
2019-06-07T11:47:27.473Z,6960.00
2019-06-07T11:48:27.628Z,6928.00
2019-06-07T11:49:27.787Z,6948.00
2019-06-07T11:50:27.943Z,6980.00
2019-06-07T11:51:28.123Z,7088.00
2019-06-07T11:52:28.261Z,6916.00
2019-06-07T11:53:28.423Z,6956.00
2019-06-07T11:54:28.576Z,6984.00
2019-06-07T11:55:28.730Z,6960.00
2019-06-07T11:56:28.909Z,6912.00
2019-06-07T11:57:29.063Z,6960.00
2019-06-07T11:58:29.234Z,6972.00
2019-06-07T11:59:29.380Z,7060.00
2019-06-07T12:00:29.535Z,7080.00
2019-06-07T12:01:29.693Z,7040.00
2019-06-07T12:02:29.850Z,6996.00
2019-06-07T12:03:30.010Z,6948.00
2019-06-07T12:04:34.812Z,6932.00
2019-06-07T12:05:30.324Z,6916.00
2019-06-07T12:06:30.480Z,6876.00
2019-06-07T12:07:30.638Z,6872.00
2019-06-07T12:08:30.796Z,6868.00
2019-06-07T12:09:30.957Z,6904.00
2019-06-07T12:10:42.109Z,5664.00
2019-06-07T12:11:31.273Z,6952.00
2019-06-07T12:12:31.429Z,6972.00
2019-06-07T12:13:31.585Z,6940.00
2019-06-07T12:14:31.744Z,6944.00
2019-06-07T12:15:31.900Z,6972.00
2019-06-07T12:16:32.062Z,6996.00
2019-06-07T12:17:32.217Z,7032.00
2019-06-07T12:18:32.381Z,7084.00
2019-06-07T12:19:32.533Z,7152.00
2019-06-07T12:20:32.691Z,7192.00
2019-06-07T12:21:32.853Z,7184.00
2019-06-07T12:22:33.008Z,7224.00
2019-06-07T12:23:33.168Z,7128.00
2019-06-07T12:24:33.324Z,7124.00
2019-06-07T12:25:33.500Z,7112.00